createdAt,value
2022-09-30T00:00:08.341Z,25.30
2022-09-30T00:03:16.266Z,24.20
2022-09-30T00:06:24.391Z,23.00
2022-09-30T00:09:31.777Z,24.90
2022-09-30T00:12:40.052Z,23.60
2022-09-30T00:15:48.395Z,22.60
2022-09-30T00:18:55.762Z,25.40
2022-09-30T00:22:03.664Z,21.60
2022-09-30T00:25:11.505Z,21.10
2022-09-30T00:28:19.281Z,22.00
2022-09-30T00:31:27.480Z,23.40
2022-09-30T00:34:34.876Z,24.20
2022-09-30T00:37:42.591Z,21.80
2022-09-30T00:40:50.396Z,20.40
2022-09-30T00:43:58.064Z,20.20
2022-09-30T00:47:05.716Z,21.00
2022-09-30T00:50:13.856Z,21.80
2022-09-30T00:53:23.497Z,17.90
2022-09-30T00:56:31.320Z,17.60
2022-09-30T00:59:39.170Z,25.00
2022-09-30T01:02:47.381Z,23.20
2022-09-30T01:05:54.763Z,26.90
2022-09-30T01:09:03.160Z,28.40
2022-09-30T01:12:10.488Z,22.60
2022-09-30T01:15:18.731Z,24.70
2022-09-30T01:18:26.651Z,23.90
2022-09-30T01:21:34.642Z,22.60
2022-09-30T01:24:42.552Z,22.70
2022-09-30T01:27:50.635Z,22.40
2022-09-30T01:30:58.073Z,23.30
2022-09-30T01:34:06.264Z,22.00
2022-09-30T01:37:13.574Z,24.40
2022-09-30T01:40:21.974Z,23.60
2022-09-30T01:43:29.796Z,23.60
2022-09-30T01:46:37.591Z,26.40
2022-09-30T01:49:45.436Z,27.20
2022-09-30T01:52:53.486Z,25.00
2022-09-30T01:56:00.807Z,25.00
2022-09-30T01:59:08.973Z,26.20
2022-09-30T02:02:16.472Z,22.40
2022-09-30T02:05:24.726Z,22.50
2022-09-30T02:08:32.681Z,21.30
2022-09-30T02:11:40.502Z,28.70
2022-09-30T02:14:48.363Z,31.10
2022-09-30T02:17:56.631Z,32.60
2022-09-30T02:21:04.057Z,25.70
2022-09-30T02:24:12.290Z,26.30
2022-09-30T02:27:19.642Z,25.00
2022-09-30T02:30:27.912Z,25.30
2022-09-30T02:33:35.343Z,26.70
2022-09-30T02:36:43.113Z,28.60
2022-09-30T02:39:50.946Z,26.80
2022-09-30T02:42:59.191Z,24.10
2022-09-30T02:46:06.525Z,27.30
2022-09-30T02:49:15.005Z,26.10
2022-09-30T02:52:22.223Z,29.10
2022-09-30T02:55:30.196Z,27.60
2022-09-30T02:58:38.056Z,33.70
2022-09-30T03:01:45.918Z,25.50
2022-09-30T03:04:53.597Z,32.00
2022-09-30T03:08:02.230Z,28.60
2022-09-30T03:11:09.570Z,31.60
2022-09-30T03:14:17.677Z,26.20
2022-09-30T03:17:25.065Z,27.40
2022-09-30T03:20:33.289Z,30.70
2022-09-30T03:23:41.059Z,23.80
2022-09-30T03:26:48.899Z,22.90
2022-09-30T03:29:56.760Z,26.00
2022-09-30T03:33:04.846Z,32.30
2022-09-30T03:36:12.269Z,29.30
2022-09-30T03:39:20.533Z,28.40
2022-09-30T03:42:27.901Z,29.40
2022-09-30T03:45:36.124Z,26.90
2022-09-30T03:48:43.960Z,28.50
2022-09-30T03:51:51.594Z,31.80
2022-09-30T03:54:59.470Z,27.70
2022-09-30T03:58:07.922Z,30.90
2022-09-30T04:01:15.275Z,32.70
2022-09-30T04:04:23.527Z,29.10
2022-09-30T04:07:30.839Z,32.00
2022-09-30T04:10:39.193Z,31.90
2022-09-30T04:13:46.955Z,28.90
2022-09-30T04:16:55.007Z,28.60
2022-09-30T04:20:02.667Z,27.20
2022-09-30T04:23:10.487Z,26.90
2022-09-30T04:26:18.150Z,36.20
2022-09-30T04:29:26.416Z,42.20
2022-09-30T04:32:33.818Z,34.90
2022-09-30T04:35:42.408Z,32.40
2022-09-30T04:38:50.279Z,31.00
2022-09-30T04:41:58.159Z,27.10
2022-09-30T04:45:06.043Z,29.70
2022-09-30T04:48:13.910Z,31.40
2022-09-30T04:51:21.667Z,31.40
2022-09-30T04:54:29.952Z,31.40
2022-09-30T04:57:37.391Z,31.90
2022-09-30T05:00:45.784Z,35.60
2022-09-30T05:03:53.536Z,27.60
2022-09-30T05:07:01.302Z,33.10
2022-09-30T05:10:09.077Z,29.10
2022-09-30T05:13:16.745Z,28.90
2022-09-30T05:16:24.785Z,27.60
2022-09-30T05:19:33.345Z,30.50
2022-09-30T05:22:40.644Z,29.60
2022-09-30T05:25:48.776Z,33.60
2022-09-30T05:28:56.356Z,31.60
2022-09-30T05:32:04.143Z,30.80
2022-09-30T05:35:11.813Z,34.90
2022-09-30T05:38:19.598Z,39.60
2022-09-30T05:41:27.417Z,32.80
2022-09-30T05:44:35.467Z,35.00
2022-09-30T05:47:42.903Z,34.00
2022-09-30T05:50:51.215Z,38.70
2022-09-30T05:53:59.168Z,41.60
2022-09-30T05:57:06.998Z,38.60
2022-09-30T06:00:14.929Z,37.60
2022-09-30T06:03:22.850Z,43.00
2022-09-30T06:06:30.836Z,42.60
2022-09-30T06:09:39.332Z,48.40
2022-09-30T06:12:47.015Z,42.30
2022-09-30T06:15:55.502Z,43.70
2022-09-30T06:19:03.511Z,40.40
2022-09-30T06:22:11.523Z,45.80
2022-09-30T06:25:19.602Z,45.70
2022-09-30T06:28:27.770Z,40.20
2022-09-30T06:31:36.117Z,43.40
2022-09-30T06:34:44.382Z,40.40
2022-09-30T06:37:51.945Z,40.80
2022-09-30T06:41:00.635Z,40.30
2022-09-30T06:44:09.370Z,38.70
2022-09-30T06:47:24.858Z,38.60
2022-09-30T06:50:25.772Z,42.90
2022-09-30T06:53:23.170Z,39.10
2022-09-30T06:56:31.097Z,39.30
2022-09-30T06:59:39.514Z,39.10
2022-09-30T07:02:46.945Z,35.30
2022-09-30T07:05:55.542Z,35.50
2022-09-30T07:09:03.081Z,33.50
2022-09-30T07:12:11.229Z,33.60
2022-09-30T07:15:19.091Z,34.70
2022-09-30T07:18:26.831Z,31.10
2022-09-30T07:21:34.502Z,31.70
2022-09-30T07:24:43.142Z,31.30
2022-09-30T07:27:50.441Z,32.50
2022-09-30T07:31:19.846Z,29.00
2022-09-30T07:34:03.265Z,28.10
2022-09-30T07:37:11.602Z,26.70
2022-09-30T07:40:19.527Z,31.10
2022-09-30T07:43:27.385Z,30.10
2022-09-30T07:46:35.325Z,27.10
2022-09-30T07:49:43.756Z,25.50
2022-09-30T07:52:51.106Z,25.90
2022-09-30T07:55:59.388Z,29.40
2022-09-30T07:59:06.836Z,28.20
2022-09-30T08:02:15.257Z,27.90
2022-09-30T08:05:23.125Z,27.10
2022-09-30T08:08:30.929Z,20.60
2022-09-30T08:11:38.640Z,21.40
2022-09-30T08:14:46.581Z,20.80
2022-09-30T08:17:54.051Z,22.90
2022-09-30T08:21:02.422Z,19.80
2022-09-30T08:24:09.812Z,18.40
2022-09-30T08:27:18.038Z,17.20
2022-09-30T08:30:26.273Z,16.10
2022-09-30T08:33:34.371Z,17.40
2022-09-30T08:36:42.445Z,17.40
2022-09-30T08:39:50.967Z,18.00
2022-09-30T08:42:58.639Z,15.70
2022-09-30T08:46:07.783Z,15.20
2022-09-30T08:49:15.337Z,14.70
2022-09-30T08:52:30.454Z,14.80
2022-09-30T08:55:28.887Z,14.90
2022-09-30T08:58:37.261Z,13.20
2022-09-30T09:01:45.131Z,16.70
2022-09-30T09:04:53.305Z,15.50
2022-09-30T09:08:01.110Z,15.60
2022-09-30T09:11:09.678Z,14.90
2022-09-30T09:14:17.535Z,12.30
2022-09-30T09:17:25.589Z,16.10
2022-09-30T09:20:33.915Z,16.40
2022-09-30T09:23:41.205Z,17.20
2022-09-30T09:26:49.437Z,16.00
2022-09-30T09:29:57.717Z,17.50
2022-09-30T09:33:05.007Z,16.20
2022-09-30T09:36:13.078Z,19.20
2022-09-30T09:39:20.903Z,19.20
2022-09-30T09:42:28.672Z,19.70
2022-09-30T09:45:36.896Z,16.60
2022-09-30T09:48:44.556Z,15.20
2022-09-30T09:51:52.071Z,14.10
2022-09-30T09:55:00.253Z,16.20
2022-09-30T09:58:08.154Z,15.20
2022-09-30T10:01:15.960Z,14.70
2022-09-30T10:04:23.773Z,12.00
2022-09-30T10:07:32.056Z,14.30
2022-09-30T10:10:39.826Z,15.60
2022-09-30T10:13:47.666Z,13.10
2022-09-30T10:16:55.587Z,16.30
2022-09-30T10:20:02.979Z,16.50
2022-09-30T10:23:11.230Z,12.10
2022-09-30T10:26:19.096Z,9.20
2022-09-30T10:29:26.620Z,10.10
2022-09-30T10:32:34.792Z,9.50
2022-09-30T10:35:42.652Z,9.40
2022-09-30T10:38:50.113Z,8.60
2022-09-30T10:41:58.274Z,8.70
2022-09-30T10:45:05.975Z,7.50
2022-09-30T10:48:13.821Z,8.00
2022-09-30T10:51:22.144Z,6.70
2022-09-30T10:54:29.737Z,7.30
2022-09-30T10:57:37.537Z,6.40
2022-09-30T11:00:45.802Z,9.60
2022-09-30T11:03:53.783Z,7.80
2022-09-30T11:07:01.546Z,9.70
2022-09-30T11:10:09.201Z,7.20
2022-09-30T11:13:16.998Z,6.50
2022-09-30T11:16:25.155Z,6.30
2022-09-30T11:19:33.038Z,4.80
2022-09-30T11:22:40.895Z,6.70
2022-09-30T11:25:48.726Z,4.90
2022-09-30T11:28:56.435Z,6.60
2022-09-30T11:32:04.725Z,6.20
2022-09-30T11:35:12.170Z,6.40
2022-09-30T11:38:20.336Z,5.40
2022-09-30T11:41:28.034Z,7.00
2022-09-30T11:44:35.603Z,5.20
2022-09-30T11:47:43.743Z,7.80
2022-09-30T11:50:51.982Z,5.20
2022-09-30T11:53:59.484Z,4.60
2022-09-30T11:57:07.873Z,3.70
2022-09-30T12:00:15.930Z,2.90
2022-09-30T12:03:23.314Z,4.20
2022-09-30T12:06:31.699Z,3.80
2022-09-30T12:09:39.758Z,5.40
2022-09-30T12:12:47.549Z,3.90
2022-09-30T12:15:55.710Z,2.10
2022-09-30T12:19:03.471Z,3.40
2022-09-30T12:22:11.224Z,3.40
2022-09-30T12:25:18.808Z,2.60
2022-09-30T12:28:27.113Z,2.80
2022-09-30T12:31:34.979Z,3.90
2022-09-30T12:34:42.595Z,6.20
2022-09-30T12:37:50.766Z,1.50
2022-09-30T12:40:58.666Z,2.00
2022-09-30T12:44:06.408Z,3.00
2022-09-30T12:47:14.480Z,1.80
2022-09-30T12:50:21.852Z,1.70
2022-09-30T12:53:30.204Z,3.30
2022-09-30T12:56:38.502Z,1.70
2022-09-30T12:59:45.784Z,1.40
2022-09-30T13:02:54.104Z,1.50
2022-09-30T13:06:02.145Z,0.90
2022-09-30T13:09:09.635Z,0.80
2022-09-30T13:12:17.375Z,2.10
2022-09-30T13:15:25.118Z,0.80
2022-09-30T13:18:32.859Z,0.50
2022-09-30T13:21:40.750Z,1.30
2022-09-30T13:24:48.588Z,0.70
2022-09-30T13:27:56.413Z,0.80
2022-09-30T13:31:04.404Z,2.40
2022-09-30T13:34:12.176Z,0.90
2022-09-30T13:37:20.187Z,2.60
2022-09-30T13:40:49.893Z,0.70
2022-09-30T13:43:33.248Z,2.00
2022-09-30T13:46:41.125Z,2.40
2022-09-30T13:49:48.957Z,2.10
2022-09-30T13:52:57.079Z,1.00
2022-09-30T13:56:04.979Z,1.90
2022-09-30T13:59:12.603Z,0.90
2022-09-30T14:02:22.444Z,0.60
2022-09-30T14:05:30.059Z,1.10
2022-09-30T14:08:38.145Z,1.10
2022-09-30T14:11:46.277Z,0.40
2022-09-30T14:14:53.656Z,2.10
2022-09-30T14:18:04.442Z,2.10
2022-09-30T14:21:02.908Z,1.50
2022-09-30T14:24:10.318Z,1.10
2022-09-30T14:27:18.432Z,1.80
2022-09-30T14:30:26.560Z,0.90
2022-09-30T14:33:33.973Z,0.80
2022-09-30T14:37:31.405Z,1.10
2022-09-30T14:40:39.652Z,1.80
2022-09-30T14:43:48.121Z,1.20
2022-09-30T14:46:55.709Z,0.40
2022-09-30T14:50:03.275Z,0.20
2022-09-30T14:53:11.265Z,0.70
2022-09-30T14:56:19.120Z,1.20
2022-09-30T14:59:26.818Z,1.20
2022-09-30T15:02:35.108Z,1.00
2022-09-30T15:05:42.809Z,0.90
2022-09-30T15:08:50.629Z,2.00
2022-09-30T15:11:58.850Z,0.90
2022-09-30T15:15:06.468Z,0.40
2022-09-30T15:18:14.643Z,1.20
2022-09-30T15:21:22.481Z,0.80
2022-09-30T15:24:30.303Z,1.50
2022-09-30T15:27:38.123Z,0.90
2022-09-30T15:30:45.431Z,3.70
2022-09-30T15:33:53.136Z,2.80
2022-09-30T15:37:00.885Z,1.00
2022-09-30T15:40:08.190Z,1.30
2022-09-30T15:43:16.422Z,2.60
2022-09-30T15:46:24.225Z,1.10
2022-09-30T15:49:31.578Z,2.10
2022-09-30T15:52:39.351Z,4.90
2022-09-30T15:55:47.320Z,3.20
2022-09-30T15:58:55.113Z,1.50
2022-09-30T16:02:03.161Z,5.40
2022-09-30T16:05:11.345Z,0.50
2022-09-30T16:08:19.151Z,0.90
2022-09-30T16:11:26.937Z,2.00
2022-09-30T16:14:34.559Z,1.90
2022-09-30T16:17:42.299Z,1.40
2022-09-30T16:20:49.990Z,2.90
2022-09-30T16:23:58.180Z,0.60
2022-09-30T16:27:05.990Z,1.60
2022-09-30T16:30:13.626Z,2.00
2022-09-30T16:33:21.880Z,2.00
2022-09-30T16:36:29.526Z,1.50
2022-09-30T16:39:37.825Z,1.50
2022-09-30T16:42:45.753Z,8.00
2022-09-30T16:45:53.258Z,3.80
2022-09-30T16:49:01.576Z,2.50
2022-09-30T16:52:09.968Z,2.00
2022-09-30T16:55:17.532Z,1.60
2022-09-30T16:58:25.643Z,2.70
2022-09-30T17:01:33.889Z,2.80
2022-09-30T17:04:41.613Z,2.60
2022-09-30T17:07:49.412Z,1.60
2022-09-30T17:10:57.380Z,2.20
2022-09-30T17:14:05.123Z,2.60
2022-09-30T17:17:13.929Z,3.00
2022-09-30T17:20:22.286Z,2.00
2022-09-30T17:23:29.655Z,1.50
2022-09-30T17:26:37.897Z,4.00
2022-09-30T17:29:45.541Z,2.80
2022-09-30T17:32:53.468Z,4.50
2022-09-30T17:36:01.239Z,5.20
2022-09-30T17:39:09.044Z,4.70
2022-09-30T17:42:16.680Z,2.70
2022-09-30T17:45:24.943Z,4.40
2022-09-30T17:48:33.108Z,4.90
2022-09-30T17:51:40.844Z,4.10
2022-09-30T17:54:52.198Z,5.50
2022-09-30T17:57:49.393Z,4.70
2022-09-30T18:00:57.165Z,6.30
2022-09-30T18:04:05.274Z,4.00
2022-09-30T18:07:13.105Z,3.50
2022-09-30T18:10:20.926Z,6.20
2022-09-30T18:13:29.096Z,4.60
2022-09-30T18:16:36.740Z,5.90
2022-09-30T18:19:45.217Z,8.20
2022-09-30T18:22:53.373Z,5.80
2022-09-30T18:26:00.790Z,6.10
2022-09-30T18:29:08.920Z,4.00
2022-09-30T18:32:17.131Z,5.40
2022-09-30T18:35:24.593Z,3.80
2022-09-30T18:38:32.870Z,5.70
2022-09-30T18:41:45.338Z,3.50
2022-09-30T18:44:42.651Z,4.50
2022-09-30T18:47:50.477Z,5.80
2022-09-30T18:50:58.586Z,6.00
2022-09-30T18:54:07.436Z,6.70
2022-09-30T18:57:15.877Z,5.70
2022-09-30T19:00:23.697Z,5.60
2022-09-30T19:03:31.520Z,9.40
2022-09-30T19:06:39.869Z,6.90
2022-09-30T19:09:47.589Z,9.10
2022-09-30T19:12:55.068Z,7.50
2022-09-30T19:16:02.725Z,4.20
2022-09-30T19:19:10.663Z,5.20
2022-09-30T19:22:18.606Z,3.50
2022-09-30T19:25:26.623Z,5.70
2022-09-30T19:28:34.863Z,4.10
2022-09-30T19:31:42.866Z,2.50
2022-09-30T19:35:00.947Z,4.20
2022-09-30T19:38:02.675Z,5.40
2022-09-30T19:40:59.627Z,5.30
2022-09-30T19:44:07.725Z,5.00
2022-09-30T19:47:15.632Z,3.60
2022-09-30T19:50:23.058Z,3.00
2022-09-30T19:53:31.037Z,3.20
2022-09-30T19:56:39.089Z,3.60
2022-09-30T19:59:46.857Z,2.80
2022-09-30T20:02:54.780Z,2.40
2022-09-30T20:06:02.207Z,3.70
2022-09-30T20:09:11.223Z,3.30
2022-09-30T20:12:19.504Z,5.10
2022-09-30T20:15:27.221Z,4.20
2022-09-30T20:18:35.455Z,3.40
2022-09-30T20:21:43.743Z,4.30
2022-09-30T20:24:51.326Z,5.50
2022-09-30T20:27:59.495Z,4.80
2022-09-30T20:31:07.027Z,4.20
2022-09-30T20:34:15.298Z,4.10
2022-09-30T20:37:23.418Z,5.40
2022-09-30T20:40:31.099Z,3.80
2022-09-30T20:43:38.888Z,3.80
2022-09-30T20:46:46.980Z,4.00
2022-09-30T20:49:55.046Z,6.20
2022-09-30T20:53:02.800Z,4.40
2022-09-30T20:56:10.514Z,4.10
2022-09-30T20:59:18.448Z,4.50
2022-09-30T21:02:26.142Z,4.30
2022-09-30T21:05:33.764Z,4.60
2022-09-30T21:08:41.894Z,6.50
2022-09-30T21:11:49.684Z,5.20
2022-09-30T21:14:57.455Z,6.20
2022-09-30T21:18:05.561Z,6.90
2022-09-30T21:21:12.926Z,8.20
2022-09-30T21:24:20.632Z,6.20
2022-09-30T21:27:28.666Z,10.10
2022-09-30T21:30:35.905Z,7.40
2022-09-30T21:33:44.000Z,6.80
2022-09-30T21:36:52.189Z,7.00
2022-09-30T21:39:59.600Z,7.00
2022-09-30T21:43:07.301Z,5.70
2022-09-30T21:46:15.327Z,6.50
2022-09-30T21:49:22.990Z,6.40
2022-09-30T21:52:32.961Z,8.40
2022-09-30T21:55:40.819Z,9.70
2022-09-30T21:58:48.604Z,6.00
2022-09-30T22:01:56.981Z,7.30
2022-09-30T22:05:04.424Z,6.70
2022-09-30T22:08:12.194Z,7.00
2022-09-30T22:11:20.416Z,6.70
2022-09-30T22:14:28.173Z,7.80
2022-09-30T22:17:35.826Z,6.50
2022-09-30T22:20:44.458Z,9.00
2022-09-30T22:23:52.607Z,9.00
2022-09-30T22:27:03.095Z,11.50
2022-09-30T22:30:10.488Z,8.20
2022-09-30T22:33:18.748Z,9.20
2022-09-30T22:36:26.149Z,7.10
2022-09-30T22:39:33.720Z,8.00
2022-09-30T22:42:41.554Z,7.30
2022-09-30T22:45:48.930Z,6.50
2022-09-30T22:48:57.148Z,7.30
2022-09-30T22:52:05.531Z,7.30
2022-09-30T22:55:12.834Z,5.90
2022-09-30T22:58:20.874Z,4.80
2022-09-30T23:01:28.545Z,5.30
2022-09-30T23:04:36.394Z,4.80
2022-09-30T23:07:44.474Z,5.90
2022-09-30T23:10:52.385Z,7.10
2022-09-30T23:14:00.094Z,5.60
2022-09-30T23:17:08.079Z,5.30
2022-09-30T23:20:15.917Z,4.80
2022-09-30T23:23:23.588Z,4.40
2022-09-30T23:26:31.851Z,7.20
2022-09-30T23:29:39.619Z,5.70
2022-09-30T23:32:47.377Z,4.40
2022-09-30T23:35:55.028Z,5.60
2022-09-30T23:39:03.165Z,4.60
2022-09-30T23:42:10.802Z,6.40
2022-09-30T23:45:18.432Z,4.50
2022-09-30T23:48:26.053Z,4.60
2022-09-30T23:51:34.291Z,4.30
2022-09-30T23:54:42.205Z,5.60
2022-09-30T23:57:49.914Z,5.70
